sensor_id;sensor_type;location;lat;lon;timestamp;P1;durP1;ratioP1;P2;durP2;ratioP2
4214;SDS011;2121;48.062;7.850;2022-07-29T00:00:42;4.87;;;4.47;;
4214;SDS011;2121;48.062;7.850;2022-07-29T00:03:11;4.70;;;4.30;;
4214;SDS011;2121;48.062;7.850;2022-07-29T00:05:38;5.20;;;4.70;;
4214;SDS011;2121;48.062;7.850;2022-07-29T00:08:06;5.50;;;5.00;;
4214;SDS011;2121;48.062;7.850;2022-07-29T00:10:33;5.00;;;4.67;;
4214;SDS011;2121;48.062;7.850;2022-07-29T00:12:59;4.83;;;4.43;;
4214;SDS011;2121;48.062;7.850;2022-07-29T00:15:25;5.90;;;5.40;;
4214;SDS011;2121;48.062;7.850;2022-07-29T00:17:51;4.50;;;4.20;;
4214;SDS011;2121;48.062;7.850;2022-07-29T00:20:17;5.20;;;4.70;;
4214;SDS011;2121;48.062;7.850;2022-07-29T00:22:43;4.90;;;4.37;;
4214;SDS011;2121;48.062;7.850;2022-07-29T00:25:08;5.00;;;4.70;;
4214;SDS011;2121;48.062;7.850;2022-07-29T00:27:35;6.97;;;5.17;;
4214;SDS011;2121;48.062;7.850;2022-07-29T00:30:02;5.07;;;4.67;;
4214;SDS011;2121;48.062;7.850;2022-07-29T00:32:29;5.27;;;4.77;;
4214;SDS011;2121;48.062;7.850;2022-07-29T00:34:55;5.23;;;4.80;;
4214;SDS011;2121;48.062;7.850;2022-07-29T00:37:39;5.13;;;4.73;;
4214;SDS011;2121;48.062;7.850;2022-07-29T00:40:05;5.93;;;5.30;;
4214;SDS011;2121;48.062;7.850;2022-07-29T00:42:41;7.83;;;5.13;;
4214;SDS011;2121;48.062;7.850;2022-07-29T00:45:11;5.40;;;4.80;;
4214;SDS011;2121;48.062;7.850;2022-07-29T00:47:37;5.37;;;4.90;;
4214;SDS011;2121;48.062;7.850;2022-07-29T00:50:04;5.70;;;5.20;;
4214;SDS011;2121;48.062;7.850;2022-07-29T00:52:32;5.57;;;5.07;;
4214;SDS011;2121;48.062;7.850;2022-07-29T00:54:59;6.20;;;5.60;;
4214;SDS011;2121;48.062;7.850;2022-07-29T00:57:25;6.27;;;5.57;;
4214;SDS011;2121;48.062;7.850;2022-07-29T00:59:51;6.40;;;5.73;;
4214;SDS011;2121;48.062;7.850;2022-07-29T01:02:17;6.87;;;4.90;;
4214;SDS011;2121;48.062;7.850;2022-07-29T01:04:43;9.03;;;5.40;;
4214;SDS011;2121;48.062;7.850;2022-07-29T01:07:08;8.10;;;5.83;;
4214;SDS011;2121;48.062;7.850;2022-07-29T01:09:35;11.27;;;5.60;;
4214;SDS011;2121;48.062;7.850;2022-07-29T01:12:03;6.10;;;5.37;;
4214;SDS011;2121;48.062;7.850;2022-07-29T01:14:30;6.87;;;5.23;;
4214;SDS011;2121;48.062;7.850;2022-07-29T01:17:07;6.10;;;5.50;;
4214;SDS011;2121;48.062;7.850;2022-07-29T01:19:49;5.17;;;4.73;;
4214;SDS011;2121;48.062;7.850;2022-07-29T01:22:31;6.13;;;5.33;;
4214;SDS011;2121;48.062;7.850;2022-07-29T01:28:52;5.70;;;5.07;;
4214;SDS011;2121;48.062;7.850;2022-07-29T01:31:58;6.20;;;5.70;;
4214;SDS011;2121;48.062;7.850;2022-07-29T01:34:48;6.00;;;5.40;;
4214;SDS011;2121;48.062;7.850;2022-07-29T01:37:18;5.63;;;5.10;;
4214;SDS011;2121;48.062;7.850;2022-07-29T01:39:47;7.47;;;6.47;;
4214;SDS011;2121;48.062;7.850;2022-07-29T01:44:56;6.37;;;5.77;;
4214;SDS011;2121;48.062;7.850;2022-07-29T01:47:38;6.20;;;5.60;;
4214;SDS011;2121;48.062;7.850;2022-07-29T01:50:13;5.33;;;4.83;;
4214;SDS011;2121;48.062;7.850;2022-07-29T01:52:52;6.13;;;5.63;;
4214;SDS011;2121;48.062;7.850;2022-07-29T01:55:28;5.73;;;5.27;;
4214;SDS011;2121;48.062;7.850;2022-07-29T01:58:00;7.10;;;5.60;;
4214;SDS011;2121;48.062;7.850;2022-07-29T02:00:28;9.40;;;7.07;;
4214;SDS011;2121;48.062;7.850;2022-07-29T02:02:56;6.40;;;5.80;;
4214;SDS011;2121;48.062;7.850;2022-07-29T02:05:28;6.10;;;5.50;;
4214;SDS011;2121;48.062;7.850;2022-07-29T02:07:55;6.27;;;5.77;;
4214;SDS011;2121;48.062;7.850;2022-07-29T02:10:25;5.50;;;5.10;;
4214;SDS011;2121;48.062;7.850;2022-07-29T02:12:54;7.03;;;5.70;;
4214;SDS011;2121;48.062;7.850;2022-07-29T02:15:22;6.40;;;5.80;;
4214;SDS011;2121;48.062;7.850;2022-07-29T02:17:55;11.93;;;5.33;;
4214;SDS011;2121;48.062;7.850;2022-07-29T02:20:26;5.77;;;5.27;;
4214;SDS011;2121;48.062;7.850;2022-07-29T02:22:54;7.63;;;5.67;;
4214;SDS011;2121;48.062;7.850;2022-07-29T02:25:22;5.80;;;5.30;;
4214;SDS011;2121;48.062;7.850;2022-07-29T02:27:50;8.07;;;5.00;;
4214;SDS011;2121;48.062;7.850;2022-07-29T02:30:17;6.23;;;5.47;;
4214;SDS011;2121;48.062;7.850;2022-07-29T02:32:45;6.23;;;5.63;;
4214;SDS011;2121;48.062;7.850;2022-07-29T02:35:14;5.50;;;5.10;;
4214;SDS011;2121;48.062;7.850;2022-07-29T02:37:41;7.17;;;6.43;;
4214;SDS011;2121;48.062;7.850;2022-07-29T02:40:13;5.57;;;5.07;;
4214;SDS011;2121;48.062;7.850;2022-07-29T02:42:41;6.77;;;6.17;;
4214;SDS011;2121;48.062;7.850;2022-07-29T02:45:09;8.37;;;6.33;;
4214;SDS011;2121;48.062;7.850;2022-07-29T02:47:42;6.20;;;5.50;;
4214;SDS011;2121;48.062;7.850;2022-07-29T02:50:14;6.00;;;5.47;;
4214;SDS011;2121;48.062;7.850;2022-07-29T02:52:46;7.23;;;6.50;;
4214;SDS011;2121;48.062;7.850;2022-07-29T02:55:33;5.50;;;5.00;;
4214;SDS011;2121;48.062;7.850;2022-07-29T03:00:48;9.50;;;5.00;;
4214;SDS011;2121;48.062;7.850;2022-07-29T03:03:16;6.47;;;5.17;;
4214;SDS011;2121;48.062;7.850;2022-07-29T03:05:44;6.10;;;5.30;;
4214;SDS011;2121;48.062;7.850;2022-07-29T03:08:10;9.10;;;6.23;;
4214;SDS011;2121;48.062;7.850;2022-07-29T03:10:39;7.53;;;5.63;;
4214;SDS011;2121;48.062;7.850;2022-07-29T03:13:09;7.07;;;5.67;;
4214;SDS011;2121;48.062;7.850;2022-07-29T03:15:35;6.17;;;5.40;;
4214;SDS011;2121;48.062;7.850;2022-07-29T03:18:02;6.33;;;5.73;;
4214;SDS011;2121;48.062;7.850;2022-07-29T03:20:28;6.47;;;5.43;;
4214;SDS011;2121;48.062;7.850;2022-07-29T03:22:54;6.20;;;5.70;;
4214;SDS011;2121;48.062;7.850;2022-07-29T03:25:20;7.00;;;6.30;;
4214;SDS011;2121;48.062;7.850;2022-07-29T03:27:46;6.73;;;5.30;;
4214;SDS011;2121;48.062;7.850;2022-07-29T03:30:13;7.53;;;5.90;;
4214;SDS011;2121;48.062;7.850;2022-07-29T03:32:41;7.40;;;5.50;;
4214;SDS011;2121;48.062;7.850;2022-07-29T03:35:07;6.27;;;5.50;;
4214;SDS011;2121;48.062;7.850;2022-07-29T03:37:33;6.30;;;5.67;;
4214;SDS011;2121;48.062;7.850;2022-07-29T03:40:02;5.70;;;4.90;;
4214;SDS011;2121;48.062;7.850;2022-07-29T03:42:31;5.97;;;5.57;;
4214;SDS011;2121;48.062;7.850;2022-07-29T03:45:00;6.53;;;5.83;;
4214;SDS011;2121;48.062;7.850;2022-07-29T03:47:31;6.13;;;5.63;;
4214;SDS011;2121;48.062;7.850;2022-07-29T03:50:00;8.03;;;5.30;;
4214;SDS011;2121;48.062;7.850;2022-07-29T03:52:31;6.43;;;5.87;;
4214;SDS011;2121;48.062;7.850;2022-07-29T03:54:57;7.47;;;5.13;;
4214;SDS011;2121;48.062;7.850;2022-07-29T03:57:23;6.80;;;5.70;;
4214;SDS011;2121;48.062;7.850;2022-07-29T03:59:52;9.50;;;5.83;;
4214;SDS011;2121;48.062;7.850;2022-07-29T04:02:19;6.50;;;5.90;;
4214;SDS011;2121;48.062;7.850;2022-07-29T04:04:46;6.00;;;5.50;;
4214;SDS011;2121;48.062;7.850;2022-07-29T04:07:12;6.90;;;5.97;;
4214;SDS011;2121;48.062;7.850;2022-07-29T04:09:39;5.93;;;5.43;;
4214;SDS011;2121;48.062;7.850;2022-07-29T04:12:06;8.97;;;6.10;;
4214;SDS011;2121;48.062;7.850;2022-07-29T04:14:32;6.40;;;5.87;;
4214;SDS011;2121;48.062;7.850;2022-07-29T04:16:59;8.40;;;5.73;;
4214;SDS011;2121;48.062;7.850;2022-07-29T04:19:26;5.97;;;5.37;;
4214;SDS011;2121;48.062;7.850;2022-07-29T04:21:52;6.10;;;5.50;;
4214;SDS011;2121;48.062;7.850;2022-07-29T04:24:18;6.70;;;5.30;;
4214;SDS011;2121;48.062;7.850;2022-07-29T04:26:45;6.33;;;5.07;;
4214;SDS011;2121;48.062;7.850;2022-07-29T04:29:12;5.87;;;5.40;;
4214;SDS011;2121;48.062;7.850;2022-07-29T04:31:39;6.80;;;6.20;;
4214;SDS011;2121;48.062;7.850;2022-07-29T04:34:06;5.70;;;5.20;;
4214;SDS011;2121;48.062;7.850;2022-07-29T04:36:32;5.90;;;5.23;;
4214;SDS011;2121;48.062;7.850;2022-07-29T04:38:58;5.70;;;5.17;;
4214;SDS011;2121;48.062;7.850;2022-07-29T04:41:24;5.27;;;4.83;;
4214;SDS011;2121;48.062;7.850;2022-07-29T04:43:49;7.57;;;5.20;;
4214;SDS011;2121;48.062;7.850;2022-07-29T04:46:15;5.90;;;5.40;;
4214;SDS011;2121;48.062;7.850;2022-07-29T04:48:41;7.90;;;6.53;;
4214;SDS011;2121;48.062;7.850;2022-07-29T04:51:07;6.93;;;5.20;;
4214;SDS011;2121;48.062;7.850;2022-07-29T04:53:32;10.60;;;6.27;;
4214;SDS011;2121;48.062;7.850;2022-07-29T04:55:58;5.83;;;5.33;;
4214;SDS011;2121;48.062;7.850;2022-07-29T04:58:24;12.63;;;6.20;;
4214;SDS011;2121;48.062;7.850;2022-07-29T05:00:50;6.30;;;5.47;;
4214;SDS011;2121;48.062;7.850;2022-07-29T05:03:16;5.47;;;5.07;;
4214;SDS011;2121;48.062;7.850;2022-07-29T05:05:42;5.37;;;4.87;;
4214;SDS011;2121;48.062;7.850;2022-07-29T05:08:08;7.70;;;5.20;;
4214;SDS011;2121;48.062;7.850;2022-07-29T05:10:34;6.40;;;5.10;;
4214;SDS011;2121;48.062;7.850;2022-07-29T05:13:03;5.80;;;5.30;;
4214;SDS011;2121;48.062;7.850;2022-07-29T05:15:36;5.00;;;4.60;;
4214;SDS011;2121;48.062;7.850;2022-07-29T05:18:02;5.30;;;4.80;;
4214;SDS011;2121;48.062;7.850;2022-07-29T05:20:29;9.67;;;4.37;;
4214;SDS011;2121;48.062;7.850;2022-07-29T05:22:59;6.13;;;5.17;;
4214;SDS011;2121;48.062;7.850;2022-07-29T05:25:26;5.10;;;4.60;;
4214;SDS011;2121;48.062;7.850;2022-07-29T05:27:53;5.40;;;4.93;;
4214;SDS011;2121;48.062;7.850;2022-07-29T05:30:19;9.63;;;5.10;;
4214;SDS011;2121;48.062;7.850;2022-07-29T05:32:45;5.50;;;5.00;;
4214;SDS011;2121;48.062;7.850;2022-07-29T05:35:12;5.87;;;4.90;;
4214;SDS011;2121;48.062;7.850;2022-07-29T05:37:39;4.97;;;4.47;;
4214;SDS011;2121;48.062;7.850;2022-07-29T05:40:05;5.93;;;5.33;;
4214;SDS011;2121;48.062;7.850;2022-07-29T05:42:31;5.73;;;5.23;;
4214;SDS011;2121;48.062;7.850;2022-07-29T05:44:57;6.67;;;5.10;;
4214;SDS011;2121;48.062;7.850;2022-07-29T05:47:23;6.03;;;5.43;;
4214;SDS011;2121;48.062;7.850;2022-07-29T05:49:49;5.20;;;4.70;;
4214;SDS011;2121;48.062;7.850;2022-07-29T05:52:15;5.03;;;4.10;;
4214;SDS011;2121;48.062;7.850;2022-07-29T05:54:42;7.10;;;5.37;;
4214;SDS011;2121;48.062;7.850;2022-07-29T05:57:08;9.30;;;4.80;;
4214;SDS011;2121;48.062;7.850;2022-07-29T05:59:40;12.77;;;4.37;;
4214;SDS011;2121;48.062;7.850;2022-07-29T06:02:06;6.13;;;4.73;;
4214;SDS011;2121;48.062;7.850;2022-07-29T06:04:32;6.27;;;4.80;;
4214;SDS011;2121;48.062;7.850;2022-07-29T06:06:58;5.20;;;4.33;;
4214;SDS011;2121;48.062;7.850;2022-07-29T06:09:24;4.77;;;4.13;;
4214;SDS011;2121;48.062;7.850;2022-07-29T06:11:51;5.20;;;4.70;;
4214;SDS011;2121;48.062;7.850;2022-07-29T06:14:17;5.53;;;4.40;;
4214;SDS011;2121;48.062;7.850;2022-07-29T06:16:43;4.80;;;4.37;;
4214;SDS011;2121;48.062;7.850;2022-07-29T06:19:09;4.80;;;4.50;;
4214;SDS011;2121;48.062;7.850;2022-07-29T06:21:35;7.33;;;4.70;;
4214;SDS011;2121;48.062;7.850;2022-07-29T06:24:01;7.33;;;4.60;;
4214;SDS011;2121;48.062;7.850;2022-07-29T06:26:27;4.90;;;4.50;;
4214;SDS011;2121;48.062;7.850;2022-07-29T06:28:52;11.93;;;4.20;;
4214;SDS011;2121;48.062;7.850;2022-07-29T06:31:18;5.77;;;4.40;;
4214;SDS011;2121;48.062;7.850;2022-07-29T06:33:44;4.53;;;4.23;;
4214;SDS011;2121;48.062;7.850;2022-07-29T06:36:10;6.53;;;5.10;;
4214;SDS011;2121;48.062;7.850;2022-07-29T06:38:35;4.50;;;4.20;;
4214;SDS011;2121;48.062;7.850;2022-07-29T06:41:03;5.17;;;4.20;;
4214;SDS011;2121;48.062;7.850;2022-07-29T06:45:59;7.00;;;3.80;;
4214;SDS011;2121;48.062;7.850;2022-07-29T06:48:26;4.60;;;4.20;;
4214;SDS011;2121;48.062;7.850;2022-07-29T06:50:53;4.27;;;3.87;;
4214;SDS011;2121;48.062;7.850;2022-07-29T06:53:19;5.77;;;3.93;;
4214;SDS011;2121;48.062;7.850;2022-07-29T06:55:45;4.13;;;3.83;;
4214;SDS011;2121;48.062;7.850;2022-07-29T06:58:11;14.97;;;5.17;;
4214;SDS011;2121;48.062;7.850;2022-07-29T07:00:39;6.63;;;4.23;;
4214;SDS011;2121;48.062;7.850;2022-07-29T07:03:04;6.20;;;4.23;;
4214;SDS011;2121;48.062;7.850;2022-07-29T07:05:30;9.40;;;4.23;;
4214;SDS011;2121;48.062;7.850;2022-07-29T07:07:56;4.60;;;4.17;;
4214;SDS011;2121;48.062;7.850;2022-07-29T07:10:22;4.67;;;4.27;;
4214;SDS011;2121;48.062;7.850;2022-07-29T07:12:47;6.40;;;4.17;;
4214;SDS011;2121;48.062;7.850;2022-07-29T07:15:13;5.10;;;4.70;;
4214;SDS011;2121;48.062;7.850;2022-07-29T07:17:42;10.17;;;4.20;;
4214;SDS011;2121;48.062;7.850;2022-07-29T07:20:07;4.37;;;3.97;;
4214;SDS011;2121;48.062;7.850;2022-07-29T07:22:33;3.90;;;3.53;;
4214;SDS011;2121;48.062;7.850;2022-07-29T07:24:59;5.73;;;3.90;;
4214;SDS011;2121;48.062;7.850;2022-07-29T07:27:25;7.10;;;4.53;;
4214;SDS011;2121;48.062;7.850;2022-07-29T07:29:52;4.17;;;3.77;;
4214;SDS011;2121;48.062;7.850;2022-07-29T07:32:18;4.50;;;3.87;;
4214;SDS011;2121;48.062;7.850;2022-07-29T07:34:44;4.50;;;3.77;;
4214;SDS011;2121;48.062;7.850;2022-07-29T07:37:10;4.80;;;4.20;;
4214;SDS011;2121;48.062;7.850;2022-07-29T07:39:36;5.47;;;5.07;;
4214;SDS011;2121;48.062;7.850;2022-07-29T07:42:02;4.27;;;3.53;;
4214;SDS011;2121;48.062;7.850;2022-07-29T07:44:27;17.63;;;4.00;;
4214;SDS011;2121;48.062;7.850;2022-07-29T07:46:53;4.87;;;4.47;;
4214;SDS011;2121;48.062;7.850;2022-07-29T07:49:19;4.33;;;4.03;;
4214;SDS011;2121;48.062;7.850;2022-07-29T07:51:45;4.23;;;3.80;;
4214;SDS011;2121;48.062;7.850;2022-07-29T07:54:10;11.50;;;4.30;;
4214;SDS011;2121;48.062;7.850;2022-07-29T07:56:36;3.43;;;3.10;;
4214;SDS011;2121;48.062;7.850;2022-07-29T07:59:02;8.77;;;4.30;;
4214;SDS011;2121;48.062;7.850;2022-07-29T08:01:28;4.17;;;3.70;;
4214;SDS011;2121;48.062;7.850;2022-07-29T08:03:53;6.50;;;4.00;;
4214;SDS011;2121;48.062;7.850;2022-07-29T08:06:19;4.00;;;3.70;;
4214;SDS011;2121;48.062;7.850;2022-07-29T08:08:45;12.40;;;4.37;;
4214;SDS011;2121;48.062;7.850;2022-07-29T08:11:11;4.53;;;3.70;;
4214;SDS011;2121;48.062;7.850;2022-07-29T08:13:37;5.50;;;4.10;;
4214;SDS011;2121;48.062;7.850;2022-07-29T08:16:03;4.07;;;3.30;;
4214;SDS011;2121;48.062;7.850;2022-07-29T08:18:40;5.60;;;4.20;;
4214;SDS011;2121;48.062;7.850;2022-07-29T08:21:07;4.33;;;3.60;;
4214;SDS011;2121;48.062;7.850;2022-07-29T08:23:34;5.90;;;4.17;;
4214;SDS011;2121;48.062;7.850;2022-07-29T08:26:07;4.33;;;3.93;;
4214;SDS011;2121;48.062;7.850;2022-07-29T08:28:37;7.00;;;3.60;;
4214;SDS011;2121;48.062;7.850;2022-07-29T08:31:03;4.03;;;3.63;;
4214;SDS011;2121;48.062;7.850;2022-07-29T08:33:29;5.00;;;4.20;;
4214;SDS011;2121;48.062;7.850;2022-07-29T08:35:55;13.33;;;3.97;;
4214;SDS011;2121;48.062;7.850;2022-07-29T08:38:21;5.97;;;3.77;;
4214;SDS011;2121;48.062;7.850;2022-07-29T08:40:47;7.73;;;3.80;;
4214;SDS011;2121;48.062;7.850;2022-07-29T08:43:13;4.60;;;3.30;;
4214;SDS011;2121;48.062;7.850;2022-07-29T08:45:46;11.17;;;4.60;;
4214;SDS011;2121;48.062;7.850;2022-07-29T08:48:15;5.07;;;4.13;;
4214;SDS011;2121;48.062;7.850;2022-07-29T08:50:45;3.73;;;3.53;;
4214;SDS011;2121;48.062;7.850;2022-07-29T08:53:15;7.73;;;3.80;;
4214;SDS011;2121;48.062;7.850;2022-07-29T08:55:43;3.67;;;3.23;;
4214;SDS011;2121;48.062;7.850;2022-07-29T08:58:11;4.30;;;3.87;;
4214;SDS011;2121;48.062;7.850;2022-07-29T09:00:42;5.47;;;3.65;;
4214;SDS011;2121;48.062;7.850;2022-07-29T09:03:15;4.53;;;3.35;;
4214;SDS011;2121;48.062;7.850;2022-07-29T09:05:47;7.60;;;3.40;;
4214;SDS011;2121;48.062;7.850;2022-07-29T09:08:14;5.15;;;4.75;;
4214;SDS011;2121;48.062;7.850;2022-07-29T09:10:41;3.85;;;3.58;;
4214;SDS011;2121;48.062;7.850;2022-07-29T09:13:07;4.82;;;3.88;;
4214;SDS011;2121;48.062;7.850;2022-07-29T09:15:33;10.32;;;3.67;;
4214;SDS011;2121;48.062;7.850;2022-07-29T09:17:59;11.88;;;5.55;;
4214;SDS011;2121;48.062;7.850;2022-07-29T09:20:25;7.35;;;3.50;;
4214;SDS011;2121;48.062;7.850;2022-07-29T09:23:12;3.50;;;3.03;;
4214;SDS011;2121;48.062;7.850;2022-07-29T09:25:39;6.75;;;3.22;;
4214;SDS011;2121;48.062;7.850;2022-07-29T09:30:33;6.07;;;3.63;;
4214;SDS011;2121;48.062;7.850;2022-07-29T09:33:00;5.32;;;3.60;;
4214;SDS011;2121;48.062;7.850;2022-07-29T09:35:29;3.90;;;3.45;;
4214;SDS011;2121;48.062;7.850;2022-07-29T09:37:56;8.57;;;4.05;;
4214;SDS011;2121;48.062;7.850;2022-07-29T09:40:23;3.80;;;3.50;;
4214;SDS011;2121;48.062;7.850;2022-07-29T09:42:52;7.57;;;3.33;;
4214;SDS011;2121;48.062;7.850;2022-07-29T09:45:34;6.07;;;3.38;;
4214;SDS011;2121;48.062;7.850;2022-07-29T09:48:12;3.70;;;2.60;;
4214;SDS011;2121;48.062;7.850;2022-07-29T09:50:41;3.85;;;3.47;;
4214;SDS011;2121;48.062;7.850;2022-07-29T09:53:09;5.28;;;3.45;;
4214;SDS011;2121;48.062;7.850;2022-07-29T09:55:50;6.05;;;3.42;;
4214;SDS011;2121;48.062;7.850;2022-07-29T09:58:20;3.45;;;2.90;;
4214;SDS011;2121;48.062;7.850;2022-07-29T10:00:48;4.00;;;3.47;;
4214;SDS011;2121;48.062;7.850;2022-07-29T10:03:15;4.47;;;3.75;;
4214;SDS011;2121;48.062;7.850;2022-07-29T10:05:42;8.80;;;3.80;;
4214;SDS011;2121;48.062;7.850;2022-07-29T10:08:09;5.07;;;3.75;;
4214;SDS011;2121;48.062;7.850;2022-07-29T10:10:38;11.88;;;3.53;;
4214;SDS011;2121;48.062;7.850;2022-07-29T10:13:08;8.48;;;3.35;;
4214;SDS011;2121;48.062;7.850;2022-07-29T10:15:37;3.78;;;3.20;;
4214;SDS011;2121;48.062;7.850;2022-07-29T10:18:08;5.30;;;3.63;;
4214;SDS011;2121;48.062;7.850;2022-07-29T10:20:35;3.17;;;2.95;;
4214;SDS011;2121;48.062;7.850;2022-07-29T10:23:02;3.72;;;2.85;;
4214;SDS011;2121;48.062;7.850;2022-07-29T10:25:28;6.55;;;3.55;;
4214;SDS011;2121;48.062;7.850;2022-07-29T10:27:54;13.75;;;3.95;;
4214;SDS011;2121;48.062;7.850;2022-07-29T10:30:22;3.75;;;3.15;;
4214;SDS011;2121;48.062;7.850;2022-07-29T10:44:03;11.02;;;3.05;;
4214;SDS011;2121;48.062;7.850;2022-07-29T10:46:36;3.13;;;2.85;;
4214;SDS011;2121;48.062;7.850;2022-07-29T10:52:10;8.30;;;3.45;;
4214;SDS011;2121;48.062;7.850;2022-07-29T10:59:42;8.30;;;3.65;;
4214;SDS011;2121;48.062;7.850;2022-07-29T11:05:13;3.05;;;2.80;;
4214;SDS011;2121;48.062;7.850;2022-07-29T11:10:42;4.30;;;3.90;;
4214;SDS011;2121;48.062;7.850;2022-07-29T11:13:08;7.25;;;3.22;;
4214;SDS011;2121;48.062;7.850;2022-07-29T11:15:53;3.35;;;2.90;;
4214;SDS011;2121;48.062;7.850;2022-07-29T11:18:20;13.15;;;2.78;;
4214;SDS011;2121;48.062;7.850;2022-07-29T11:20:47;6.03;;;3.47;;
4214;SDS011;2121;48.062;7.850;2022-07-29T11:39:34;7.57;;;3.10;;
4214;SDS011;2121;48.062;7.850;2022-07-29T11:47:50;5.53;;;3.13;;
4214;SDS011;2121;48.062;7.850;2022-07-29T11:50:34;8.52;;;3.53;;
4214;SDS011;2121;48.062;7.850;2022-07-29T11:53:03;7.90;;;2.92;;
4214;SDS011;2121;48.062;7.850;2022-07-29T11:55:37;3.33;;;3.03;;
4214;SDS011;2121;48.062;7.850;2022-07-29T11:58:04;3.58;;;2.90;;
4214;SDS011;2121;48.062;7.850;2022-07-29T12:00:32;4.07;;;2.67;;
4214;SDS011;2121;48.062;7.850;2022-07-29T12:03:11;8.15;;;3.00;;
4214;SDS011;2121;48.062;7.850;2022-07-29T12:08:14;3.53;;;3.22;;
4214;SDS011;2121;48.062;7.850;2022-07-29T12:10:44;3.42;;;2.55;;
4214;SDS011;2121;48.062;7.850;2022-07-29T12:13:12;3.92;;;3.15;;
4214;SDS011;2121;48.062;7.850;2022-07-29T12:15:40;8.02;;;3.00;;
4214;SDS011;2121;48.062;7.850;2022-07-29T12:18:15;5.05;;;3.30;;
4214;SDS011;2121;48.062;7.850;2022-07-29T12:20:45;3.50;;;3.20;;
4214;SDS011;2121;48.062;7.850;2022-07-29T12:23:12;4.43;;;2.92;;
4214;SDS011;2121;48.062;7.850;2022-07-29T12:25:39;3.17;;;2.97;;
4214;SDS011;2121;48.062;7.850;2022-07-29T12:28:10;4.97;;;3.55;;
4214;SDS011;2121;48.062;7.850;2022-07-29T12:30:45;3.58;;;3.38;;
4214;SDS011;2121;48.062;7.850;2022-07-29T12:33:17;4.10;;;3.30;;
4214;SDS011;2121;48.062;7.850;2022-07-29T12:35:55;6.45;;;3.75;;
4214;SDS011;2121;48.062;7.850;2022-07-29T12:38:24;8.27;;;3.67;;
4214;SDS011;2121;48.062;7.850;2022-07-29T12:40:51;3.38;;;2.83;;
4214;SDS011;2121;48.062;7.850;2022-07-29T12:43:19;8.07;;;3.28;;
4214;SDS011;2121;48.062;7.850;2022-07-29T12:45:51;5.25;;;2.88;;
4214;SDS011;2121;48.062;7.850;2022-07-29T12:48:38;3.25;;;2.92;;
4214;SDS011;2121;48.062;7.850;2022-07-29T12:51:06;4.78;;;3.42;;
4214;SDS011;2121;48.062;7.850;2022-07-29T12:53:33;8.90;;;3.10;;
4214;SDS011;2121;48.062;7.850;2022-07-29T12:56:01;5.78;;;3.45;;
4214;SDS011;2121;48.062;7.850;2022-07-29T13:01:10;3.38;;;3.10;;
4214;SDS011;2121;48.062;7.850;2022-07-29T13:03:45;5.55;;;3.50;;
4214;SDS011;2121;48.062;7.850;2022-07-29T13:06:26;4.93;;;3.40;;
4214;SDS011;2121;48.062;7.850;2022-07-29T13:09:37;7.38;;;3.20;;
4214;SDS011;2121;48.062;7.850;2022-07-29T13:12:13;3.53;;;3.22;;
4214;SDS011;2121;48.062;7.850;2022-07-29T13:14:40;3.28;;;2.85;;
4214;SDS011;2121;48.062;7.850;2022-07-29T13:17:12;6.22;;;3.65;;
4214;SDS011;2121;48.062;7.850;2022-07-29T13:19:43;3.50;;;3.20;;
4214;SDS011;2121;48.062;7.850;2022-07-29T13:22:23;4.30;;;3.53;;
4214;SDS011;2121;48.062;7.850;2022-07-29T13:25:08;4.03;;;3.35;;
4214;SDS011;2121;48.062;7.850;2022-07-29T13:27:35;5.45;;;3.55;;
4214;SDS011;2121;48.062;7.850;2022-07-29T13:30:03;8.60;;;3.55;;
4214;SDS011;2121;48.062;7.850;2022-07-29T13:32:34;4.15;;;3.30;;
4214;SDS011;2121;48.062;7.850;2022-07-29T13:35:03;3.50;;;3.00;;
4214;SDS011;2121;48.062;7.850;2022-07-29T13:37:32;5.15;;;3.00;;
4214;SDS011;2121;48.062;7.850;2022-07-29T13:40:03;3.20;;;2.90;;
4214;SDS011;2121;48.062;7.850;2022-07-29T13:42:31;6.93;;;3.07;;
4214;SDS011;2121;48.062;7.850;2022-07-29T13:44:57;5.53;;;3.47;;
4214;SDS011;2121;48.062;7.850;2022-07-29T13:47:24;3.03;;;2.83;;
4214;SDS011;2121;48.062;7.850;2022-07-29T13:49:51;8.63;;;3.10;;
4214;SDS011;2121;48.062;7.850;2022-07-29T13:52:18;2.97;;;2.77;;
4214;SDS011;2121;48.062;7.850;2022-07-29T13:54:44;4.50;;;3.88;;
4214;SDS011;2121;48.062;7.850;2022-07-29T13:57:11;8.27;;;3.33;;
4214;SDS011;2121;48.062;7.850;2022-07-29T13:59:37;3.80;;;2.87;;
4214;SDS011;2121;48.062;7.850;2022-07-29T14:02:05;3.23;;;2.93;;
4214;SDS011;2121;48.062;7.850;2022-07-29T14:04:31;3.40;;;2.80;;
4214;SDS011;2121;48.062;7.850;2022-07-29T14:06:58;4.30;;;2.60;;
4214;SDS011;2121;48.062;7.850;2022-07-29T14:09:24;6.93;;;2.93;;
4214;SDS011;2121;48.062;7.850;2022-07-29T14:11:50;7.00;;;4.13;;
4214;SDS011;2121;48.062;7.850;2022-07-29T14:14:17;3.00;;;2.80;;
4214;SDS011;2121;48.062;7.850;2022-07-29T14:16:44;9.93;;;3.20;;
4214;SDS011;2121;48.062;7.850;2022-07-29T14:19:10;3.83;;;3.50;;
4214;SDS011;2121;48.062;7.850;2022-07-29T14:21:36;4.10;;;2.90;;
4214;SDS011;2121;48.062;7.850;2022-07-29T14:24:03;7.00;;;3.67;;
4214;SDS011;2121;48.062;7.850;2022-07-29T14:26:30;4.37;;;2.80;;
4214;SDS011;2121;48.062;7.850;2022-07-29T14:28:55;9.37;;;2.40;;
4214;SDS011;2121;48.062;7.850;2022-07-29T14:31:21;3.87;;;2.57;;
4214;SDS011;2121;48.062;7.850;2022-07-29T14:33:47;4.13;;;2.40;;
4214;SDS011;2121;48.062;7.850;2022-07-29T14:36:13;3.50;;;3.20;;
4214;SDS011;2121;48.062;7.850;2022-07-29T14:38:39;5.80;;;2.63;;
4214;SDS011;2121;48.062;7.850;2022-07-29T14:41:05;6.20;;;2.70;;
4214;SDS011;2121;48.062;7.850;2022-07-29T14:43:32;2.53;;;2.33;;
4214;SDS011;2121;48.062;7.850;2022-07-29T14:46:00;2.70;;;2.30;;
4214;SDS011;2121;48.062;7.850;2022-07-29T14:48:26;2.83;;;2.30;;
4214;SDS011;2121;48.062;7.850;2022-07-29T14:50:52;2.42;;;2.22;;
4214;SDS011;2121;48.062;7.850;2022-07-29T14:53:19;3.55;;;2.30;;
4214;SDS011;2121;48.062;7.850;2022-07-29T14:55:45;3.78;;;2.30;;
4214;SDS011;2121;48.062;7.850;2022-07-29T14:58:11;2.17;;;2.08;;
4214;SDS011;2121;48.062;7.850;2022-07-29T15:00:36;3.13;;;2.53;;
4214;SDS011;2121;48.062;7.850;2022-07-29T15:03:03;2.53;;;2.30;;
4214;SDS011;2121;48.062;7.850;2022-07-29T15:05:30;2.75;;;2.30;;
4214;SDS011;2121;48.062;7.850;2022-07-29T15:07:56;9.23;;;2.40;;
4214;SDS011;2121;48.062;7.850;2022-07-29T15:10:23;10.48;;;2.20;;
4214;SDS011;2121;48.062;7.850;2022-07-29T15:12:51;4.63;;;2.30;;
4214;SDS011;2121;48.062;7.850;2022-07-29T15:15:16;3.55;;;1.98;;
4214;SDS011;2121;48.062;7.850;2022-07-29T15:17:42;5.45;;;2.63;;
4214;SDS011;2121;48.062;7.850;2022-07-29T15:20:08;3.50;;;2.67;;
4214;SDS011;2121;48.062;7.850;2022-07-29T15:22:35;3.78;;;1.90;;
4214;SDS011;2121;48.062;7.850;2022-07-29T15:25:02;2.53;;;2.33;;
4214;SDS011;2121;48.062;7.850;2022-07-29T15:27:28;2.63;;;2.13;;
4214;SDS011;2121;48.062;7.850;2022-07-29T15:29:53;3.23;;;2.03;;
4214;SDS011;2121;48.062;7.850;2022-07-29T15:32:19;2.27;;;2.13;;
4214;SDS011;2121;48.062;7.850;2022-07-29T15:34:45;2.80;;;2.10;;
4214;SDS011;2121;48.062;7.850;2022-07-29T15:37:10;4.90;;;2.07;;
4214;SDS011;2121;48.062;7.850;2022-07-29T15:39:36;4.00;;;2.70;;
4214;SDS011;2121;48.062;7.850;2022-07-29T15:42:02;8.13;;;2.35;;
4214;SDS011;2121;48.062;7.850;2022-07-29T15:44:28;2.13;;;1.95;;
4214;SDS011;2121;48.062;7.850;2022-07-29T15:46:54;2.95;;;2.55;;
4214;SDS011;2121;48.062;7.850;2022-07-29T15:49:35;4.38;;;2.08;;
4214;SDS011;2121;48.062;7.850;2022-07-29T15:52:04;5.25;;;2.50;;
4214;SDS011;2121;48.062;7.850;2022-07-29T15:54:33;3.05;;;1.88;;
4214;SDS011;2121;48.062;7.850;2022-07-29T15:57:04;2.65;;;2.45;;
4214;SDS011;2121;48.062;7.850;2022-07-29T15:59:31;2.50;;;2.30;;
4214;SDS011;2121;48.062;7.850;2022-07-29T16:01:57;2.10;;;2.00;;
4214;SDS011;2121;48.062;7.850;2022-07-29T16:04:24;2.28;;;2.13;;
4214;SDS011;2121;48.062;7.850;2022-07-29T16:06:50;2.00;;;1.90;;
4214;SDS011;2121;48.062;7.850;2022-07-29T16:09:18;1.85;;;1.75;;
4214;SDS011;2121;48.062;7.850;2022-07-29T16:11:44;4.20;;;2.08;;
4214;SDS011;2121;48.062;7.850;2022-07-29T16:14:12;3.00;;;1.75;;
4214;SDS011;2121;48.062;7.850;2022-07-29T16:16:38;3.67;;;2.00;;
4214;SDS011;2121;48.062;7.850;2022-07-29T16:19:04;2.58;;;2.08;;
4214;SDS011;2121;48.062;7.850;2022-07-29T16:21:30;2.55;;;1.77;;
4214;SDS011;2121;48.062;7.850;2022-07-29T16:23:57;5.35;;;1.90;;
4214;SDS011;2121;48.062;7.850;2022-07-29T16:26:24;3.53;;;1.70;;
4214;SDS011;2121;48.062;7.850;2022-07-29T16:28:51;2.55;;;1.92;;